Portland, Oregon
Current Conditions -  °F | °C
As of 4:53 AM on Wednesday 22 Oct 2014 (Local Time) from KPDX Reporting Station
Overcast Overcast  
Wind Chill: 15°   Ceiling: 3500
Heat Index: 15°   Visibility: 10mi
Dew Point: 12°   Wind: 10mph
Humidity: 81%   Direction: 150°SSE
Pressure: 29.79"   Gusts: NA
Location:  45.51°N, 122.67°W
Report Text: KPDX 221153Z 15009KT 10SM OVC035 15/12 A2979 RMK AO2 SLP086 60005 70006 T01500117 10150 20122 58008
Loading
Personal Weather Stations






























Interactive Weather Map New forecast layout! Learn more

10-Day Weather Forecast

Advertisements
Track Severe Weather on mobile